Time;durP1;ratioP1;P1;durP2;ratioP2;P2;SDS_P1;SDS_P2;PMS_P1;PMS_P2;Temp;Humidity;BMP_temperature;BMP_pressure;BME280_temperature;BME280_humidity;BME280_pressure;Samples;Min_cycle;Max_cycle;Signal;HPM_P1;HPM_P2
2023/06/04 00:02:12;;;;;;;4.65;1.38;;;;;;;16.53;54.15;102137.25;4986833;28;20105;-68
2023/06/04 00:04:38;;;;;;;2.70;1.27;;;;;;;16.52;53.74;102140.84;4976939;28;20051;-68
2023/06/04 00:07:05;;;;;;;1.83;0.95;;;;;;;16.46;54.29;102136.19;4972431;28;20058;-67
2023/06/04 00:09:31;;;;;;;4.32;1.10;;;;;;;16.50;53.62;102134.88;4969749;28;20108;-68
2023/06/04 00:11:58;;;;;;;3.30;1.20;;;;;;;16.48;53.60;102144.78;4969535;28;20636;-68
2023/06/04 00:14:25;;;;;;;2.40;1.48;;;;;;;16.41;54.64;102133.16;4970490;28;20066;-68
2023/06/04 00:16:51;;;;;;;3.72;2.22;;;;;;;16.33;54.52;102133.94;4977599;28;20570;-68
2023/06/04 00:19:18;;;;;;;3.78;1.33;;;;;;;16.34;53.67;102132.09;4982908;28;20058;-68
2023/06/04 00:21:45;;;;;;;2.90;1.10;;;;;;;16.31;54.23;102133.25;4957547;28;20058;-68
2023/06/04 00:24:14;;;;;;;3.63;1.30;;;;;;;16.37;53.61;102129.16;4978172;28;20054;-67
2023/06/04 00:26:41;;;;;;;3.13;1.30;;;;;;;16.28;53.95;102132.72;4990839;28;20736;-67
2023/06/04 00:29:07;;;;;;;3.13;1.30;;;;;;;16.17;54.30;102134.63;4988355;28;20482;-68
2023/06/04 00:31:35;;;;;;;4.90;1.38;;;;;;;16.11;54.77;102135.22;4974513;28;20089;-68
2023/06/04 00:34:05;;;;;;;1.92;1.25;;;;;;;16.08;53.57;102135.50;4978465;28;20445;-67
2023/06/04 00:36:31;;;;;;;3.97;1.45;;;;;;;15.98;55.07;102137.41;4977418;28;20052;-68
2023/06/04 00:38:58;;;;;;;3.00;1.17;;;;;;;15.94;54.23;102144.81;4995705;28;20058;-68
2023/06/04 00:41:25;;;;;;;5.10;1.25;;;;;;;15.88;55.34;102145.41;4971445;28;20058;-67
2023/06/04 00:43:55;;;;;;;3.08;1.40;;;;;;;15.80;55.27;102148.78;4993886;28;20056;-68
2023/06/04 00:46:26;;;;;;;3.70;1.50;;;;;;;15.74;55.67;102144.09;4961594;28;20082;-68
2023/06/04 00:48:54;;;;;;;3.70;1.30;;;;;;;15.71;55.25;102147.00;4981931;28;20050;-68
2023/06/04 00:51:22;;;;;;;6.97;1.90;;;;;;;15.67;55.86;102148.28;4973392;28;20050;-68
2023/06/04 00:53:50;;;;;;;4.55;1.40;;;;;;;15.66;55.45;102151.91;4984472;28;20046;-68
2023/06/04 00:56:17;;;;;;;2.97;1.48;;;;;;;15.65;55.33;102144.94;4970618;28;20105;-68
2023/06/04 00:58:46;;;;;;;5.88;2.22;;;;;;;15.67;55.03;102147.44;4987661;28;20140;-68
2023/06/04 01:01:37;;;;;;;5.05;1.77;;;;;;;15.66;55.02;102149.28;4965075;28;20086;-65
2023/06/04 01:04:09;;;;;;;1.60;1.10;;;;;;;15.69;54.34;102137.56;4963633;28;20084;-66
2023/06/04 01:06:39;;;;;;;3.35;1.25;;;;;;;15.61;55.64;102139.13;4979583;28;20061;-64
2023/06/04 01:09:06;;;;;;;2.47;1.30;;;;;;;15.62;55.13;102139.94;4963957;28;20051;-64
2023/06/04 01:11:39;;;;;;;2.20;1.27;;;;;;;15.59;55.00;102143.72;4970204;28;20058;-65
2023/06/04 01:14:08;;;;;;;2.88;1.23;;;;;;;15.59;55.07;102148.19;4979809;28;20201;-67
2023/06/04 01:16:43;;;;;;;4.50;1.48;;;;;;;15.54;55.66;102146.00;4971852;28;20578;-65
2023/06/04 01:19:24;;;;;;;2.50;1.35;;;;;;;15.47;55.79;102136.97;4976091;28;20142;-66
2023/06/04 01:21:54;;;;;;;3.33;1.48;;;;;;;15.42;55.59;102142.69;4977274;28;20160;-65
2023/06/04 01:24:25;;;;;;;4.22;1.50;;;;;;;15.37;55.74;102142.31;4982397;28;20138;-65
2023/06/04 01:26:55;;;;;;;3.60;1.35;;;;;;;15.23;56.02;102143.59;4982898;28;20065;-64
2023/06/04 01:29:23;;;;;;;3.08;1.23;;;;;;;15.20;56.06;102141.25;4980135;28;20438;-66
2023/06/04 01:31:52;;;;;;;2.97;1.30;;;;;;;15.17;56.76;102144.19;4968937;28;20054;-65
2023/06/04 01:34:19;;;;;;;3.05;1.30;;;;;;;15.16;56.47;102139.03;4971059;28;20050;-65
2023/06/04 01:36:45;;;;;;;2.97;1.40;;;;;;;15.08;56.83;102138.94;4980099;28;20050;-64
2023/06/04 01:39:12;;;;;;;2.28;1.27;;;;;;;15.07;56.17;102131.97;4960154;28;20070;-65
2023/06/04 01:41:38;;;;;;;3.10;1.30;;;;;;;15.12;55.48;102140.31;4978298;28;20059;-65
2023/06/04 01:44:05;;;;;;;2.80;1.20;;;;;;;15.09;55.44;102137.94;4959861;28;20062;-64
2023/06/04 01:46:31;;;;;;;5.88;2.60;;;;;;;15.06;55.43;102133.78;4982654;28;20050;-65
2023/06/04 01:48:58;;;;;;;8.27;2.38;;;;;;;15.06;55.13;102130.31;4963108;28;20053;-65
2023/06/04 01:51:24;;;;;;;2.63;1.48;;;;;;;15.00;55.49;102129.91;4985604;28;20050;-64
2023/06/04 01:53:50;;;;;;;2.35;1.23;;;;;;;15.02;55.58;102127.13;4985354;28;20098;-64
2023/06/04 01:56:17;;;;;;;3.75;1.40;;;;;;;14.99;55.48;102122.97;4955673;28;20615;-65
2023/06/04 01:58:44;;;;;;;2.40;1.10;;;;;;;14.97;55.41;102126.72;4974494;28;20046;-65
2023/06/04 02:01:10;;;;;;;5.43;1.50;;;;;;;14.93;54.99;102126.16;4967549;28;20058;-66
2023/06/04 02:03:37;;;;;;;2.47;1.40;;;;;;;15.00;55.14;102129.09;4981929;28;20490;-65
2023/06/04 02:06:07;;;;;;;3.72;1.63;;;;;;;14.98;55.82;102131.03;4971346;28;20053;-64
2023/06/04 02:08:35;;;;;;;2.45;1.17;;;;;;;14.94;56.07;102130.47;4976079;28;20107;-65
2023/06/04 02:11:02;;;;;;;1.97;1.23;;;;;;;14.86;56.05;102127.72;4983058;28;20116;-64
2023/06/04 02:13:28;;;;;;;4.22;1.20;;;;;;;14.82;56.25;102121.91;4964489;28;20281;-66
2023/06/04 02:15:55;;;;;;;2.63;1.10;;;;;;;14.78;56.00;102130.25;4989847;28;20050;-65
2023/06/04 02:18:22;;;;;;;3.20;1.30;;;;;;;14.79;56.08;102129.25;4981647;28;20085;-65
2023/06/04 02:20:49;;;;;;;6.38;1.75;;;;;;;14.78;55.46;102132.91;4981778;28;20117;-66
2023/06/04 02:23:17;;;;;;;5.63;1.70;;;;;;;14.73;56.37;102140.41;4977054;28;20213;-64
2023/06/04 02:25:45;;;;;;;2.25;1.23;;;;;;;14.62;56.44;102134.31;4980263;28;20058;-64
2023/06/04 02:28:12;;;;;;;1.88;1.38;;;;;;;14.63;56.72;102132.50;4992763;28;20372;-64
2023/06/04 02:30:39;;;;;;;2.58;1.17;;;;;;;14.63;56.22;102137.78;4973399;28;20054;-64
2023/06/04 02:33:05;;;;;;;3.13;1.48;;;;;;;14.63;56.75;102132.50;4982765;28;20050;-64
2023/06/04 02:35:32;;;;;;;3.33;1.38;;;;;;;14.62;55.92;102128.16;4964815;28;20046;-65
2023/06/04 02:37:58;;;;;;;6.00;1.40;;;;;;;14.64;56.56;102131.50;4982713;28;20077;-65
2023/06/04 02:40:25;;;;;;;4.18;1.33;;;;;;;14.61;56.58;102124.69;4976633;28;20050;-64
2023/06/04 02:42:55;;;;;;;2.38;1.20;;;;;;;14.58;56.79;102130.28;4982339;28;20058;-65
2023/06/04 02:45:25;;;;;;;5.28;1.30;;;;;;;14.52;57.50;102133.44;4984681;28;20046;-65
2023/06/04 02:47:51;;;;;;;6.15;1.30;;;;;;;14.48;56.80;102132.03;4980314;28;20517;-65
2023/06/04 02:50:18;;;;;;;3.38;1.40;;;;;;;14.44;57.60;102133.28;4980702;28;20396;-67
2023/06/04 02:52:45;;;;;;;4.03;1.45;;;;;;;14.38;57.97;102124.13;4978867;28;20109;-67
2023/06/04 02:55:12;;;;;;;7.38;1.73;;;;;;;14.33;58.28;102122.88;4975729;28;20709;-68
2023/06/04 02:57:41;;;;;;;3.47;1.40;;;;;;;14.31;57.75;102130.97;4979825;28;20097;-68
2023/06/04 03:00:12;;;;;;;2.22;1.20;;;;;;;14.34;58.08;102132.47;4986615;28;20060;-68
2023/06/04 03:02:45;;;;;;;4.88;1.40;;;;;;;14.36;58.05;102128.72;4992326;28;20148;-68
2023/06/04 03:05:14;;;;;;;2.72;1.70;;;;;;;14.38;58.19;102131.22;4964778;28;20076;-68
2023/06/04 03:07:43;;;;;;;2.58;1.40;;;;;;;14.33;58.54;102131.66;4980920;28;20751;-67
2023/06/04 03:10:10;;;;;;;3.40;1.20;;;;;;;14.29;57.77;102129.41;4967436;28;20062;-67
2023/06/04 03:12:37;;;;;;;3.85;1.40;;;;;;;14.26;58.88;102122.59;4981194;28;20050;-67
2023/06/04 03:15:04;;;;;;;6.18;1.65;;;;;;;14.19;59.08;102124.13;4981893;28;20774;-67
2023/06/04 03:17:34;;;;;;;5.20;1.75;;;;;;;14.17;59.46;102131.34;4987725;28;20646;-67
2023/06/04 03:20:01;;;;;;;6.30;1.45;;;;;;;14.13;59.95;102130.81;4969358;28;20929;-67
2023/06/04 03:22:28;;;;;;;3.28;1.52;;;;;;;14.08;60.18;102126.91;4972474;28;20046;-68
2023/06/04 03:24:54;;;;;;;3.33;1.50;;;;;;;14.10;59.67;102130.25;4988120;28;20051;-67
2023/06/04 03:27:21;;;;;;;3.75;1.38;;;;;;;14.04;59.65;102129.81;4967754;28;20141;-67
2023/06/04 03:29:48;;;;;;;2.60;1.40;;;;;;;14.01;60.29;102140.66;4987909;28;20088;-68
2023/06/04 03:32:15;;;;;;;3.10;1.40;;;;;;;13.97;60.48;102125.22;4979979;28;20101;-68
2023/06/04 03:34:43;;;;;;;3.58;1.60;;;;;;;13.96;60.26;102123.56;4964904;28;20039;-67
2023/06/04 03:37:09;;;;;;;3.35;1.38;;;;;;;14.01;59.42;102131.88;4972645;28;20561;-68
2023/06/04 03:39:36;;;;;;;3.28;1.55;;;;;;;14.05;60.21;102130.63;4954820;28;20141;-67
2023/06/04 03:42:02;;;;;;;7.93;2.10;;;;;;;14.00;61.16;102125.78;4988011;28;20545;-68
2023/06/04 03:44:29;;;;;;;5.30;1.60;;;;;;;13.98;60.11;102137.47;4976398;28;20077;-67
2023/06/04 03:46:55;;;;;;;3.17;1.85;;;;;;;13.97;60.42;102135.78;4993984;28;20100;-68
2023/06/04 03:49:22;;;;;;;7.32;1.77;;;;;;;13.93;61.43;102137.84;4980209;28;20057;-68
2023/06/04 03:51:48;;;;;;;7.70;1.70;;;;;;;13.89;61.32;102136.44;4968542;28;20054;-67
2023/06/04 03:54:17;;;;;;;5.57;1.70;;;;;;;13.85;62.03;102137.69;4982594;28;20055;-68
2023/06/04 03:56:47;;;;;;;3.17;1.42;;;;;;;13.93;60.78;102142.28;4971226;28;20145;-67
2023/06/04 03:59:14;;;;;;;3.90;1.65;;;;;;;13.84;61.59;102139.50;4985681;28;20129;-68
2023/06/04 04:01:41;;;;;;;4.93;1.80;;;;;;;13.88;61.45;102147.13;4970686;28;20069;-68
2023/06/04 04:04:08;;;;;;;2.97;1.52;;;;;;;13.89;61.51;102147.00;4972180;28;20050;-68
2023/06/04 04:06:35;;;;;;;4.28;1.83;;;;;;;13.92;61.78;102148.56;4975774;28;20065;-67
2023/06/04 04:09:03;;;;;;;5.00;1.52;;;;;;;13.88;62.33;102140.06;4978983;28;20054;-68
2023/06/04 04:11:29;;;;;;;6.47;1.70;;;;;;;13.93;62.34;102147.56;4976264;28;20085;-68
2023/06/04 04:13:56;;;;;;;5.57;1.85;;;;;;;13.87;62.90;102143.66;4975662;28;20611;-68
2023/06/04 04:16:22;;;;;;;4.82;1.70;;;;;;;13.84;62.72;102155.34;4972131;28;20109;-67
2023/06/04 04:18:49;;;;;;;4.05;1.70;;;;;;;13.83;63.25;102158.94;4977081;28;20054;-67
2023/06/04 04:21:15;;;;;;;5.65;1.85;;;;;;;13.87;62.17;102146.31;4972778;28;20050;-68
2023/06/04 04:23:42;;;;;;;4.95;1.58;;;;;;;13.84;63.18;102150.06;4988454;28;20089;-68
2023/06/04 04:26:09;;;;;;;4.53;1.77;;;;;;;13.83;64.14;102152.81;4969697;28;20054;-67
2023/06/04 04:28:37;;;;;;;5.95;1.60;;;;;;;13.78;64.64;102155.03;4982738;28;20055;-67
2023/06/04 04:31:04;;;;;;;5.60;1.92;;;;;;;13.78;65.01;102150.59;4956887;28;20057;-68
2023/06/04 04:33:36;;;;;;;7.57;2.00;;;;;;;13.76;64.83;102147.28;4965136;28;20054;-68
2023/06/04 04:36:03;;;;;;;3.95;1.55;;;;;;;13.79;64.56;102154.91;4970993;28;20129;-68
2023/06/04 04:38:33;;;;;;;6.05;2.00;;;;;;;13.80;64.54;102161.03;4972125;28;20055;-68
2023/06/04 04:41:00;;;;;;;2.78;1.60;;;;;;;13.80;65.74;102156.56;4984708;28;20054;-68
2023/06/04 04:43:33;;;;;;;5.53;1.75;;;;;;;13.83;65.32;102155.47;4971482;28;20057;-68
2023/06/04 04:46:00;;;;;;;6.38;1.88;;;;;;;13.84;65.23;102157.97;4982670;28;20142;-68
2023/06/04 04:48:26;;;;;;;4.43;1.92;;;;;;;13.84;65.42;102160.59;4977243;28;20049;-68
2023/06/04 04:50:53;;;;;;;3.65;1.63;;;;;;;13.93;65.10;102158.13;4981175;28;20056;-68
2023/06/04 04:53:20;;;;;;;5.68;1.88;;;;;;;13.90;64.73;102146.06;4979966;28;20046;-67
2023/06/04 04:55:47;;;;;;;5.63;1.98;;;;;;;13.95;65.06;102154.38;4983420;28;20055;-68
2023/06/04 04:58:14;;;;;;;5.53;2.22;;;;;;;13.95;66.15;102158.81;4967536;28;20419;-68
2023/06/04 05:00:41;;;;;;;5.78;1.75;;;;;;;13.94;65.46;102155.34;4974157;28;20120;-68
2023/06/04 05:03:07;;;;;;;6.45;1.92;;;;;;;13.95;65.95;102154.38;4986334;28;20392;-68
2023/06/04 05:05:34;;;;;;;8.73;1.88;;;;;;;13.97;65.41;102159.50;4981723;28;20042;-68
2023/06/04 05:08:01;;;;;;;3.90;1.98;;;;;;;14.00;66.21;102157.44;4981981;28;20073;-68
2023/06/04 05:10:27;;;;;;;4.95;1.85;;;;;;;13.96;66.44;102156.06;4967029;28;20408;-67
2023/06/04 05:12:56;;;;;;;3.45;1.38;;;;;;;14.04;64.76;102158.00;4977888;28;20054;-67
2023/06/04 05:15:24;;;;;;;7.10;2.20;;;;;;;14.07;65.91;102160.34;4958939;28;20038;-68
2023/06/04 05:17:52;;;;;;;4.00;1.85;;;;;;;14.10;65.59;102162.75;4980368;28;20060;-67
2023/06/04 05:20:21;;;;;;;3.50;1.73;;;;;;;14.13;66.02;102151.91;4976122;28;20061;-68
2023/06/04 05:22:47;;;;;;;2.42;1.50;;;;;;;14.17;65.17;102149.81;4979495;28;20054;-67
2023/06/04 05:25:14;;;;;;;6.00;2.20;;;;;;;14.20;65.91;102147.75;4971395;28;20047;-68
2023/06/04 05:27:41;;;;;;;5.18;2.28;;;;;;;14.17;66.74;102150.69;4962534;28;20136;-67
2023/06/04 05:30:08;;;;;;;3.38;1.60;;;;;;;14.17;66.26;102155.94;4975965;28;20051;-68
2023/06/04 05:32:40;;;;;;;4.15;2.13;;;;;;;14.17;67.93;102150.69;4973730;28;20522;-67
2023/06/04 05:35:08;;;;;;;4.40;1.95;;;;;;;14.20;67.36;102152.19;4972823;28;20050;-67
2023/06/04 05:37:37;;;;;;;6.97;2.20;;;;;;;14.18;68.33;102144.41;4973981;28;20082;-67
2023/06/04 05:40:05;;;;;;;8.48;2.20;;;;;;;14.26;66.55;102148.19;4977608;28;20491;-67
2023/06/04 05:42:32;;;;;;;5.38;2.15;;;;;;;14.30;67.09;102145.09;4966226;28;20047;-68
2023/06/04 05:44:58;;;;;;;4.18;1.95;;;;;;;14.36;67.26;102149.84;4984692;28;20043;-67
2023/06/04 05:47:28;;;;;;;7.57;2.30;;;;;;;14.37;67.49;102143.59;4969206;28;20504;-68
2023/06/04 05:49:55;;;;;;;4.30;1.70;;;;;;;14.43;65.25;102147.50;4977367;28;20066;-67
2023/06/04 05:52:22;;;;;;;4.57;1.90;;;;;;;14.40;64.94;102148.56;4978448;28;20105;-67
2023/06/04 05:54:49;;;;;;;9.55;2.10;;;;;;;14.46;65.17;102151.66;4969996;28;20472;-68
2023/06/04 05:57:15;;;;;;;5.43;2.10;;;;;;;14.44;67.29;102147.34;4970009;28;20058;-68
2023/06/04 05:59:42;;;;;;;6.25;2.20;;;;;;;14.44;66.80;102147.34;4979013;28;20051;-68
2023/06/04 06:02:08;;;;;;;5.35;1.67;;;;;;;14.58;65.43;102153.19;4970763;28;20435;-67
2023/06/04 06:04:35;;;;;;;5.15;2.13;;;;;;;14.56;67.65;102157.75;4968010;28;20047;-68
2023/06/04 06:07:02;;;;;;;6.75;2.38;;;;;;;14.59;67.95;102160.16;4968276;28;20098;-68
2023/06/04 06:09:28;;;;;;;6.53;2.05;;;;;;;14.62;68.78;102166.00;4958261;28;20051;-68
2023/06/04 06:11:55;;;;;;;7.55;2.20;;;;;;;14.65;68.85;102164.88;4979337;28;20137;-67
2023/06/04 06:14:23;;;;;;;5.93;2.40;;;;;;;14.62;67.85;102157.22;4980336;28;20086;-67
2023/06/04 06:16:49;;;;;;;5.05;2.03;;;;;;;14.68;66.34;102155.81;4970765;28;20130;-67
2023/06/04 06:19:16;;;;;;;2.95;1.60;;;;;;;14.80;67.10;102162.66;4972799;28;20085;-68
2023/06/04 06:21:43;;;;;;;3.13;1.70;;;;;;;14.86;65.91;102162.06;4985179;28;20114;-68
2023/06/04 06:24:10;;;;;;;8.95;2.10;;;;;;;14.95;65.97;102163.00;4983524;28;20048;-68
2023/06/04 06:26:37;;;;;;;2.75;1.92;;;;;;;15.01;66.02;102158.00;4962539;28;20059;-68
2023/06/04 06:29:03;;;;;;;4.85;2.10;;;;;;;15.02;66.16;102164.94;4974427;28;20052;-68
2023/06/04 06:31:29;;;;;;;5.78;2.38;;;;;;;15.07;66.12;102163.69;4971659;28;20085;-67
2023/06/04 06:33:56;;;;;;;5.90;2.63;;;;;;;15.11;66.75;102168.56;4981720;28;20050;-67
2023/06/04 06:36:22;;;;;;;5.82;2.97;;;;;;;15.16;65.90;102165.47;4976993;28;20046;-67
2023/06/04 06:38:50;;;;;;;7.00;2.80;;;;;;;15.19;66.32;102167.81;4963182;28;20215;-67
2023/06/04 06:41:17;;;;;;;5.78;2.53;;;;;;;15.25;65.63;102172.53;4975725;28;21490;-67
2023/06/04 06:43:43;;;;;;;4.43;2.47;;;;;;;15.25;66.44;102172.53;4970530;28;20142;-68
2023/06/04 06:46:09;;;;;;;4.40;2.28;;;;;;;15.34;64.59;102173.47;4974450;28;20051;-67
2023/06/04 06:48:36;;;;;;;4.47;1.92;;;;;;;15.34;64.47;102174.31;4956799;28;20419;-67
2023/06/04 06:51:03;;;;;;;6.85;2.10;;;;;;;15.43;63.91;102180.56;4983951;28;20078;-67
2023/06/04 06:53:29;;;;;;;6.72;2.10;;;;;;;15.45;63.05;102175.13;4954183;28;20050;-67
2023/06/04 06:55:56;;;;;;;3.90;1.83;;;;;;;15.52;63.63;102178.81;4979957;28;20039;-67
2023/06/04 06:58:23;;;;;;;6.28;2.20;;;;;;;15.56;64.00;102181.06;4975835;28;20086;-67
2023/06/04 07:00:49;;;;;;;6.35;2.38;;;;;;;15.63;63.54;102183.94;4969428;28;20050;-67
2023/06/04 07:03:16;;;;;;;5.95;1.95;;;;;;;15.69;63.06;102186.00;4973233;28;20046;-67
2023/06/04 07:05:43;;;;;;;3.67;1.80;;;;;;;15.70;62.54;102186.81;4972259;28;20059;-67
2023/06/04 07:08:09;;;;;;;4.05;1.63;;;;;;;15.75;61.95;102190.72;4985451;28;20054;-67
2023/06/04 07:10:36;;;;;;;3.38;1.80;;;;;;;15.79;62.63;102193.91;4980186;28;20146;-67
2023/06/04 07:13:02;;;;;;;2.88;1.58;;;;;;;15.85;61.72;102187.19;4976381;28;20648;-67
2023/06/04 07:15:28;;;;;;;3.45;1.90;;;;;;;15.91;61.97;102192.72;4982690;28;20065;-66
2023/06/04 07:17:55;;;;;;;5.60;2.15;;;;;;;15.99;61.54;102194.63;4981377;28;20101;-67
2023/06/04 07:20:22;;;;;;;3.53;1.75;;;;;;;15.97;61.83;102192.13;4984858;28;20089;-67
2023/06/04 07:22:48;;;;;;;4.10;1.58;;;;;;;16.05;60.78;102188.75;4978675;28;20054;-67
2023/06/04 07:25:15;;;;;;;5.65;1.75;;;;;;;16.12;61.45;102191.63;4982558;28;20074;-68
2023/06/04 07:27:41;;;;;;;5.63;2.17;;;;;;;16.15;62.82;102197.47;4987087;28;20093;-68
2023/06/04 07:30:09;;;;;;;12.75;2.10;;;;;;;16.24;61.07;102189.59;4970009;28;20121;-67
2023/06/04 07:32:35;;;;;;;3.60;1.85;;;;;;;16.31;60.31;102193.34;4977248;28;20267;-68
2023/06/04 07:35:03;;;;;;;4.15;1.73;;;;;;;16.37;60.40;102200.66;4966906;28;20506;-68
2023/06/04 07:37:29;;;;;;;3.28;1.80;;;;;;;16.43;59.21;102200.06;4984965;28;20054;-68
2023/06/04 07:39:56;;;;;;;2.63;1.48;;;;;;;16.48;57.85;102195.13;4965363;28;20660;-68
2023/06/04 07:42:23;;;;;;;1.85;1.42;;;;;;;16.59;58.22;102196.72;4981451;28;20137;-68
2023/06/04 07:44:49;;;;;;;5.93;1.58;;;;;;;16.64;59.00;102202.41;4986084;28;20129;-68
2023/06/04 07:47:15;;;;;;;2.90;1.45;;;;;;;16.69;59.75;102199.28;4972208;28;20061;-68
2023/06/04 07:49:42;;;;;;;3.83;1.83;;;;;;;16.74;58.62;102195.19;4969840;28;20426;-68
2023/06/04 07:52:27;;;;;;;2.30;1.30;;;;;;;16.87;56.72;102196.63;4969652;28;20055;-68
2023/06/04 07:54:53;;;;;;;3.95;1.70;;;;;;;16.95;57.47;102210.75;4983346;28;20557;-68
2023/06/04 07:57:20;;;;;;;4.30;1.60;;;;;;;17.03;57.80;102206.53;4977313;28;20073;-68
2023/06/04 07:59:46;;;;;;;4.32;1.40;;;;;;;17.12;57.54;102200.28;4982364;28;20173;-68
2023/06/04 08:02:14;;;;;;;3.33;1.48;;;;;;;17.19;57.63;102196.88;4967364;28;20117;-68
2023/06/04 08:04:41;;;;;;;3.70;1.65;;;;;;;17.28;55.82;102199.56;4985722;28;20049;-68
2023/06/04 08:07:07;;;;;;;4.22;1.65;;;;;;;17.36;55.73;102203.06;4978412;28;20047;-68
2023/06/04 08:09:34;;;;;;;3.72;1.50;;;;;;;17.46;56.65;102202.13;4977734;28;20462;-68
2023/06/04 08:12:00;;;;;;;5.00;1.52;;;;;;;17.55;55.83;102206.50;4972682;28;20054;-68
2023/06/04 08:14:27;;;;;;;3.22;1.50;;;;;;;17.58;55.02;102191.09;4966853;28;20364;-68
2023/06/04 08:16:54;;;;;;;3.60;1.55;;;;;;;17.72;54.99;102204.72;4970771;28;20053;-68
2023/06/04 08:19:20;;;;;;;4.10;1.60;;;;;;;17.82;55.49;102202.81;4981253;28;20046;-68
2023/06/04 08:21:47;;;;;;;5.95;1.77;;;;;;;17.92;55.22;102200.88;4970126;28;20345;-69
2023/06/04 08:24:13;;;;;;;4.38;1.60;;;;;;;18.05;54.46;102205.69;4979229;28;20055;-68
2023/06/04 08:26:40;;;;;;;4.22;1.70;;;;;;;18.14;53.42;102196.75;4968549;28;20496;-68
2023/06/04 08:29:07;;;;;;;3.63;1.40;;;;;;;18.41;52.86;102199.31;4966557;28;20058;-68
2023/06/04 08:31:34;;;;;;;3.40;1.55;;;;;;;18.70;53.40;102194.34;4974715;28;20077;-69
2023/06/04 08:34:00;;;;;;;5.22;1.98;;;;;;;19.13;52.69;102202.09;4967395;28;20062;-68
2023/06/04 08:36:27;;;;;;;2.75;1.50;;;;;;;19.50;50.29;102195.34;4981017;28;20093;-68
2023/06/04 08:38:54;;;;;;;6.28;1.63;;;;;;;19.94;49.19;102192.19;4980646;28;20082;-69
2023/06/04 08:41:51;;;;;;;3.00;1.42;;;;;;;20.40;48.15;102188.72;4982585;28;20051;-68
2023/06/04 08:44:18;;;;;;;3.13;1.30;;;;;;;20.91;47.71;102203.16;4963642;28;20301;-67
2023/06/04 08:46:47;;;;;;;2.10;1.00;;;;;;;21.32;47.23;102199.22;4979324;28;20058;-68
2023/06/04 08:49:15;;;;;;;6.32;1.50;;;;;;;21.65;46.31;102194.34;4979237;28;20469;-67
2023/06/04 08:51:42;;;;;;;3.50;1.30;;;;;;;21.99;44.20;102198.22;4984713;28;20050;-67
2023/06/04 08:54:10;;;;;;;3.25;1.20;;;;;;;22.35;44.89;102196.59;4965745;28;20082;-67
2023/06/04 08:56:36;;;;;;;2.72;1.27;;;;;;;22.69;43.23;102207.34;4971207;28;20122;-68
2023/06/04 08:59:08;;;;;;;3.83;1.42;;;;;;;23.05;42.26;102197.56;4968672;28;20137;-68
2023/06/04 09:01:36;;;;;;;1.77;1.02;;;;;;;23.30;42.12;102206.75;4970562;28;20074;-68
2023/06/04 09:04:05;;;;;;;3.78;1.45;;;;;;;23.62;42.16;102206.31;4972530;28;20072;-68
2023/06/04 09:06:37;;;;;;;6.03;1.40;;;;;;;23.85;41.46;102204.16;4967368;28;20110;-68
2023/06/04 09:09:09;;;;;;;5.65;1.67;;;;;;;24.13;41.45;102202.38;4969820;28;20443;-68
2023/06/04 09:11:41;;;;;;;2.72;1.20;;;;;;;24.34;39.35;102199.50;4972286;28;20058;-68
2023/06/04 09:14:09;;;;;;;3.75;1.42;;;;;;;24.55;39.32;102203.91;4975457;28;20081;-68
2023/06/04 09:16:53;;;;;;;3.25;1.20;;;;;;;24.78;38.45;102199.97;4973568;28;20050;-69
2023/06/04 09:19:20;;;;;;;2.90;1.17;;;;;;;25.00;38.79;102205.94;4972749;28;20050;-69
2023/06/04 09:21:56;;;;;;;1.92;1.05;;;;;;;25.19;37.35;102198.88;4973923;28;20531;-69
2023/06/04 09:24:25;;;;;;;4.32;1.00;;;;;;;25.29;37.33;102203.84;4977945;28;20109;-69
2023/06/04 09:26:51;;;;;;;3.75;1.20;;;;;;;25.43;37.03;102203.56;4965705;28;20082;-69
2023/06/04 09:29:18;;;;;;;4.90;1.45;;;;;;;25.56;36.77;102201.84;4974990;28;20073;-69
2023/06/04 09:31:47;;;;;;;6.70;1.58;;;;;;;25.63;35.72;102198.09;4980118;28;20437;-69
2023/06/04 09:34:14;;;;;;;3.33;1.20;;;;;;;25.76;35.63;102194.53;4966326;28;20085;-69
2023/06/04 09:36:41;;;;;;;2.83;0.90;;;;;;;25.91;35.56;102202.34;4979844;28;20409;-69
2023/06/04 09:39:15;;;;;;;2.20;1.17;;;;;;;26.15;35.43;102210.66;4975304;28;20143;-69
2023/06/04 09:41:42;;;;;;;2.35;1.13;;;;;;;26.27;36.45;102198.19;4955552;28;20058;-69
2023/06/04 09:44:10;;;;;;;3.50;1.30;;;;;;;26.31;34.29;102193.22;4968065;28;20101;-69
2023/06/04 09:46:37;;;;;;;;;;;;;;;26.45;35.00;102197.44;4974732;28;20054;-69
2023/06/04 09:49:05;;;;;;;1.77;1.10;;;;;;;26.49;34.23;102192.44;4982567;28;19949;-68
2023/06/04 09:51:32;;;;;;;2.00;1.17;;;;;;;26.54;33.49;102190.75;4989671;28;20046;-68
2023/06/04 09:54:03;;;;;;;2.20;1.20;;;;;;;26.57;32.77;102195.66;4979179;28;20789;-69
2023/06/04 09:56:38;;;;;;;2.55;0.85;;;;;;;26.59;31.70;102190.09;4986501;28;20197;-69
2023/06/04 09:59:06;;;;;;;1.25;1.00;;;;;;;26.63;31.80;102192.13;4963731;28;20129;-69
2023/06/04 10:01:36;;;;;;;1.90;0.90;;;;;;;26.79;32.63;102195.28;4987151;28;20144;-69
2023/06/04 10:04:03;;;;;;;2.40;0.90;;;;;;;26.84;32.39;102198.16;4981816;28;20057;-69
2023/06/04 10:06:34;;;;;;;4.35;1.00;;;;;;;26.93;31.22;102191.44;4983624;28;20491;-69
2023/06/04 10:09:05;;;;;;;3.70;1.02;;;;;;;27.09;32.34;102203.50;4963331;28;20628;-70
2023/06/04 10:11:36;;;;;;;2.55;1.42;;;;;;;27.13;32.41;102193.91;4975260;28;20222;-69
2023/06/04 10:14:08;;;;;;;4.57;1.10;;;;;;;27.21;32.01;102192.81;4987675;28;20058;-69
2023/06/04 10:16:37;;;;;;;2.05;1.15;;;;;;;27.27;32.33;102191.94;4986321;28;20100;-69
2023/06/04 10:19:07;;;;;;;2.40;1.15;;;;;;;27.28;32.33;102190.88;4982540;28;20379;-70
2023/06/04 10:21:35;;;;;;;1.30;1.20;;;;;;;27.39;31.99;102192.00;4975551;28;20050;-70
2023/06/04 10:24:03;;;;;;;3.70;1.10;;;;;;;27.48;32.28;102196.03;4981442;28;20371;-70
2023/06/04 10:26:30;;;;;;;2.58;1.25;;;;;;;27.59;32.25;102192.56;5001362;28;20050;-69
2023/06/04 10:28:57;;;;;;;1.95;0.95;;;;;;;27.60;31.90;102191.53;4987350;28;20069;-70
2023/06/04 10:31:24;;;;;;;;;;;;;;;27.68;31.84;102189.53;4985850;28;20050;-69
2023/06/04 10:33:58;;;;;;;3.45;1.30;;;;;;;27.76;32.52;102189.25;4976202;28;19922;-70
2023/06/04 10:36:25;;;;;;;3.20;1.20;;;;;;;27.92;32.29;102194.00;4981475;28;20046;-70
2023/06/04 10:38:53;;;;;;;4.25;1.10;;;;;;;28.03;32.47;102188.88;4982139;28;20134;-70
2023/06/04 10:41:23;;;;;;;4.03;1.30;;;;;;;28.09;32.29;102186.09;4991071;28;20065;-70
2023/06/04 10:43:51;;;;;;;3.38;1.35;;;;;;;28.23;31.61;102189.41;4974944;28;20057;-70
2023/06/04 10:46:19;;;;;;;1.73;1.20;;;;;;;28.31;32.06;102186.38;4996161;28;20150;-70
2023/06/04 10:48:50;;;;;;;2.55;1.17;;;;;;;28.35;32.30;102192.94;4971076;28;20513;-70
2023/06/04 10:51:33;;;;;;;4.22;1.35;;;;;;;28.54;31.86;102190.16;4984090;28;20061;-70
2023/06/04 10:54:01;;;;;;;2.58;1.20;;;;;;;28.59;32.37;102188.41;4978275;28;20466;-70
2023/06/04 10:56:32;;;;;;;2.40;1.05;;;;;;;28.63;31.43;102180.66;4975638;28;20649;-70
2023/06/04 10:59:00;;;;;;;6.13;1.30;;;;;;;28.51;32.44;102188.75;4966619;28;20144;-70
2023/06/04 11:01:31;;;;;;;3.78;1.20;;;;;;;28.64;31.69;102179.63;4976036;28;20129;-71
2023/06/04 11:03:58;;;;;;;3.03;1.10;;;;;;;28.84;31.54;102183.84;4979523;28;20900;-70
2023/06/04 11:06:27;;;;;;;5.68;1.30;;;;;;;28.86;30.92;102170.91;4974014;28;20080;-71
2023/06/04 11:09:05;;;;;;;2.70;1.08;;;;;;;28.93;31.51;102177.84;4974776;28;20051;-70
2023/06/04 11:11:32;;;;;;;2.63;1.33;;;;;;;28.96;31.00;102177.34;4969833;28;20499;-70
2023/06/04 11:14:12;;;;;;;4.47;1.43;;;;;;;28.97;31.29;102173.59;4971071;28;20054;-71
2023/06/04 11:16:39;;;;;;;4.90;1.30;;;;;;;28.99;30.90;102170.66;4976741;28;20058;-71
2023/06/04 11:19:05;;;;;;;2.22;1.10;;;;;;;29.06;31.01;102167.84;4961156;28;20070;-70
2023/06/04 11:21:36;;;;;;;3.20;1.10;;;;;;;29.15;30.89;102161.03;4963121;28;20088;-71
2023/06/04 11:24:03;;;;;;;2.95;1.35;;;;;;;29.15;30.62;102166.44;4976341;28;20690;-71
2023/06/04 11:26:33;;;;;;;1.93;1.00;;;;;;;29.12;30.95;102161.50;4982189;28;20479;-70
2023/06/04 11:29:07;;;;;;;4.65;1.20;;;;;;;29.14;30.34;102162.91;4983777;28;20291;-71
2023/06/04 11:31:48;;;;;;;2.05;1.25;;;;;;;29.26;30.30;102153.94;4973838;28;20086;-70